Airfield :
LOGIN :

Register | Disclaimer

   EN    FR    IT 

 










Legend :    VFR   Marginal VFR   IFR   Intensive IFR   Very Intensive IFR
Visi :
Ceiling :
>= 8 km
>= 3000ft
5 to 8 km
1000 to 3000 ft
1500m to 5 km
500 to 1000 ft
800 to 1500m
200 to 500 ft
< 800m
< 200 ft
Symbols :   Thunderstorms  Fog  Heavy snow  Heavy precipitations  Wind > 20 kt
SIGMETs :     Misc.  Thunderstorms  Icing  Turbulence  Mountain Waves  Volcanic Ashes







- Airport Elevation : 681 ft
- IATA code : LBA
- Download approach charts


EGNM - Leeds Bradford

CURRENT METAR :
  • 160150Z 26003KT 9999 FEW010 SCT025 11/10 Q1022

EXPIRED METARs :
  • 160120Z VRB03KT 9999 FEW010 BKN025 11/10 Q1022
  • 160050Z 28004KT 9999 FEW006 BKN027 11/10 Q1022
  • 160020Z 28004KT 8000 FEW004 BKN025 11/10 Q1022
  • 152350Z 27004KT 8000 FEW004 BKN025 11/10 Q1022
  • 152320Z 24004KT 9000 FEW010 BKN017 11/10 Q1022
  • 152250Z 25004KT 9000 -RA FEW010 BKN017 11/10 Q1022

TAF TAF EGNM
Valid from the 16 at 00:00 until the 17 at 00:00 UTC


152302Z 1600/1624 VRB04KT 9999 FEW010 SCT025
PROB30
TEMPO 1600/1604 4000 -RA BKN009
ATIS : +44 113 250 9696 (x2489)
No reported NOTAMs for that airfield.



MET'MAP, your aeronautical weather chart ! - Copyright ORBIFLY December 2007 - Disclaimer

ORBIFLY MET'MAP TEAM :

Programming & Development : Alexandra Zaïnal
Concept & Development : Baudouin d'Aumeries
Co-Development & Prog : Marc-Olivier Méhu
Technical & hardware support : Manuel Goepfert

Contact : metmap@orbifly.com




SOURCES & CREDITS :

   NOAA